createdAt,value
2017-04-25T00:00:44.236Z,99.90
2017-04-25T00:01:50.845Z,99.90
2017-04-25T00:02:56.951Z,99.90
2017-04-25T00:04:02.941Z,99.90
2017-04-25T00:05:09.193Z,99.90
2017-04-25T00:06:15.909Z,99.90
2017-04-25T00:07:21.820Z,99.90
2017-04-25T00:08:27.791Z,99.90
2017-04-25T00:09:34.257Z,99.90
2017-04-25T00:10:40.144Z,99.90
2017-04-25T00:12:52.343Z,99.90
2017-04-25T00:13:58.330Z,99.90
2017-04-25T00:15:04.221Z,99.90
2017-04-25T00:16:10.204Z,99.90
2017-04-25T00:17:16.121Z,99.90
2017-04-25T00:18:22.005Z,99.90
2017-04-25T00:19:27.775Z,99.90
2017-04-25T00:20:33.881Z,99.90
2017-04-25T00:21:40.114Z,99.90
2017-04-25T00:22:46.056Z,99.90
2017-04-25T00:23:52.027Z,99.90
2017-04-25T00:24:57.890Z,99.90
2017-04-25T00:26:04.457Z,99.90
2017-04-25T00:27:10.455Z,99.90
2017-04-25T00:28:17.013Z,99.90
2017-04-25T00:29:22.838Z,99.90
2017-04-25T00:30:30.989Z,99.90
2017-04-25T00:31:36.949Z,99.90
2017-04-25T00:32:42.946Z,99.90
2017-04-25T00:33:49.029Z,99.90
2017-04-25T00:34:55.525Z,99.90
2017-04-25T00:36:02.075Z,99.90
2017-04-25T00:37:07.998Z,99.90
2017-04-25T00:38:14.100Z,99.90
2017-04-25T00:39:20.042Z,99.90
2017-04-25T00:40:25.932Z,99.90
2017-04-25T00:41:31.753Z,99.90
2017-04-25T00:42:38.274Z,99.90
2017-04-25T00:43:44.249Z,99.90
2017-04-25T00:44:49.943Z,99.90
2017-04-25T00:45:55.737Z,99.90
2017-04-25T00:47:01.559Z,99.90
2017-04-25T00:48:07.572Z,99.90
2017-04-25T00:49:13.578Z,99.90
2017-04-25T00:50:20.068Z,99.90
2017-04-25T00:51:26.643Z,99.90
2017-04-25T00:52:32.617Z,99.90
2017-04-25T00:53:38.437Z,99.90
2017-04-25T00:54:44.528Z,99.90
2017-04-25T00:55:51.247Z,99.90
2017-04-25T00:56:57.868Z,99.90
2017-04-25T00:58:03.769Z,99.90
2017-04-25T00:59:09.881Z,99.90
2017-04-25T01:00:16.097Z,99.90
2017-04-25T01:01:22.817Z,99.90
2017-04-25T01:02:28.693Z,99.90
2017-04-25T01:03:34.595Z,99.90
2017-04-25T01:04:40.683Z,99.90
2017-04-25T01:05:47.334Z,99.90
2017-04-25T01:06:53.895Z,99.90
2017-04-25T01:07:59.648Z,99.90
2017-04-25T01:09:06.243Z,99.90
2017-04-25T01:10:12.750Z,99.90
2017-04-25T01:11:18.760Z,99.90
2017-04-25T01:12:24.573Z,99.90
2017-04-25T01:13:31.084Z,99.90
2017-04-25T01:14:36.808Z,99.90
2017-04-25T01:15:42.730Z,99.90
2017-04-25T01:16:48.721Z,99.90
2017-04-25T01:17:54.670Z,99.90
2017-04-25T01:19:00.633Z,99.90
2017-04-25T01:20:06.584Z,99.90
2017-04-25T01:21:13.151Z,99.90
2017-04-25T01:22:19.116Z,99.90
2017-04-25T01:23:25.117Z,99.90
2017-04-25T01:24:30.885Z,99.90
2017-04-25T01:25:36.825Z,99.90
2017-04-25T01:26:42.735Z,99.90
2017-04-25T01:27:48.833Z,99.90
2017-04-25T01:28:54.578Z,99.90
2017-04-25T01:30:00.342Z,99.90
2017-04-25T01:31:06.357Z,99.90
2017-04-25T01:32:12.265Z,99.90
2017-04-25T01:33:18.129Z,99.90
2017-04-25T01:34:24.201Z,99.90
2017-04-25T01:35:30.017Z,99.90
2017-04-25T01:36:36.047Z,99.90
2017-04-25T01:37:42.158Z,99.90
2017-04-25T01:38:48.109Z,99.90
2017-04-25T01:39:54.117Z,99.90
2017-04-25T01:40:59.909Z,99.90
2017-04-25T01:42:05.877Z,99.90
2017-04-25T01:43:11.681Z,99.90
2017-04-25T01:44:17.731Z,99.90
2017-04-25T01:45:23.484Z,99.90
2017-04-25T01:46:29.945Z,99.90
2017-04-25T01:47:36.511Z,99.90
2017-04-25T01:48:43.142Z,99.90
2017-04-25T01:49:49.764Z,99.90
2017-04-25T01:50:55.526Z,99.90
2017-04-25T01:52:02.272Z,99.90
2017-04-25T01:53:08.289Z,99.90
2017-04-25T01:54:14.310Z,99.90
2017-04-25T01:55:20.403Z,99.90
2017-04-25T01:56:26.405Z,99.90
2017-04-25T01:57:32.293Z,99.90
2017-04-25T01:58:38.094Z,99.90
2017-04-25T01:59:43.892Z,99.90
2017-04-25T02:00:49.934Z,99.90
2017-04-25T02:01:56.581Z,99.90
2017-04-25T02:03:02.350Z,99.90
2017-04-25T02:04:08.214Z,99.90
2017-04-25T02:05:14.845Z,99.90
2017-04-25T02:06:21.020Z,99.90
2017-04-25T02:07:26.898Z,99.90
2017-04-25T02:08:32.925Z,99.90
2017-04-25T02:09:39.416Z,99.90
2017-04-25T02:10:45.188Z,99.90
2017-04-25T02:11:51.065Z,99.90
2017-04-25T02:12:56.881Z,99.90
2017-04-25T02:14:02.736Z,99.90
2017-04-25T02:15:09.428Z,99.90
2017-04-25T02:16:15.157Z,99.90
2017-04-25T02:17:21.023Z,99.90
2017-04-25T02:18:26.889Z,99.90
2017-04-25T02:19:32.609Z,99.90
2017-04-25T02:20:38.367Z,99.90
2017-04-25T02:21:45.048Z,99.90
2017-04-25T02:22:51.225Z,99.90
2017-04-25T02:23:57.188Z,99.90
2017-04-25T02:25:03.250Z,99.90
2017-04-25T02:26:09.241Z,99.90
2017-04-25T02:27:15.014Z,99.90
2017-04-25T02:28:20.757Z,99.90
2017-04-25T02:29:26.522Z,99.90
2017-04-25T02:30:32.542Z,99.90
2017-04-25T02:31:38.489Z,99.90
2017-04-25T02:32:44.512Z,99.90
2017-04-25T02:33:50.425Z,99.90
2017-04-25T02:34:56.989Z,99.90
2017-04-25T02:36:02.863Z,99.90
2017-04-25T02:37:09.033Z,99.90
2017-04-25T02:38:14.853Z,99.90
2017-04-25T02:39:20.554Z,99.90
2017-04-25T02:40:26.284Z,99.90
2017-04-25T02:41:32.227Z,99.90
2017-04-25T02:42:38.219Z,99.90
2017-04-25T02:43:44.182Z,99.90
2017-04-25T02:44:50.125Z,99.90
2017-04-25T02:45:55.832Z,99.90
2017-04-25T02:47:01.595Z,99.90
2017-04-25T02:48:07.369Z,99.90
2017-04-25T02:49:13.078Z,99.90
2017-04-25T02:50:18.833Z,99.90
2017-04-25T02:51:24.712Z,99.90
2017-04-25T02:52:30.590Z,99.90
2017-04-25T02:53:36.570Z,99.90
2017-04-25T02:54:42.589Z,99.90
2017-04-25T02:55:48.641Z,99.90
2017-04-25T02:56:55.037Z,99.90
2017-04-25T02:58:01.086Z,99.90
2017-04-25T02:59:06.951Z,99.90
2017-04-25T03:00:13.568Z,99.90
2017-04-25T03:01:20.300Z,99.90
2017-04-25T03:02:26.168Z,99.90
2017-04-25T03:03:31.885Z,99.90
2017-04-25T03:04:37.906Z,99.90
2017-04-25T03:05:43.901Z,99.90
2017-04-25T03:06:49.724Z,99.90
2017-04-25T03:07:55.569Z,99.90
2017-04-25T03:09:01.809Z,99.90
2017-04-25T03:10:08.380Z,99.90
2017-04-25T03:11:14.186Z,99.90
2017-04-25T03:12:20.121Z,99.90
2017-04-25T03:13:26.528Z,99.90
2017-04-25T03:14:33.151Z,99.90
2017-04-25T03:15:39.201Z,99.90
2017-04-25T03:16:45.219Z,99.90
2017-04-25T03:17:50.974Z,99.90
2017-04-25T03:18:56.689Z,99.90
2017-04-25T03:20:03.833Z,99.90
2017-04-25T03:21:09.677Z,99.90
2017-04-25T03:22:15.624Z,99.90
2017-04-25T03:23:21.617Z,99.90
2017-04-25T03:24:27.657Z,99.90
2017-04-25T03:25:33.804Z,99.90
2017-04-25T03:26:40.436Z,99.90
2017-04-25T03:27:46.553Z,99.90
2017-04-25T03:28:52.465Z,99.90
2017-04-25T03:29:58.981Z,99.90
2017-04-25T03:31:05.513Z,99.90
2017-04-25T03:32:11.492Z,99.90
2017-04-25T03:33:17.476Z,99.90
2017-04-25T03:34:24.029Z,99.90
2017-04-25T03:35:30.083Z,99.90
2017-04-25T03:36:35.854Z,99.90
2017-04-25T03:37:41.871Z,99.90
2017-04-25T03:38:47.793Z,99.90
2017-04-25T03:39:54.440Z,99.90
2017-04-25T03:41:00.360Z,99.90
2017-04-25T03:42:06.199Z,99.90
2017-04-25T03:43:12.208Z,99.90
2017-04-25T03:44:18.177Z,99.90
2017-04-25T03:45:24.856Z,99.90
2017-04-25T03:46:30.782Z,99.90
2017-04-25T03:47:37.366Z,99.90
2017-04-25T03:48:43.354Z,99.90
2017-04-25T03:49:49.200Z,99.90
2017-04-25T03:50:55.015Z,99.90
2017-04-25T03:52:00.812Z,99.90
2017-04-25T03:53:06.783Z,99.90
2017-04-25T03:54:12.595Z,99.90
2017-04-25T03:55:18.334Z,99.90
2017-04-25T03:56:24.293Z,99.90
2017-04-25T03:57:30.267Z,99.90
2017-04-25T03:58:36.089Z,99.90
2017-04-25T03:59:41.957Z,99.90
2017-04-25T04:00:48.724Z,99.90
2017-04-25T04:01:54.773Z,99.90
2017-04-25T04:03:00.836Z,99.90
2017-04-25T04:04:06.900Z,99.90
2017-04-25T04:05:13.592Z,99.90
2017-04-25T04:06:19.301Z,99.90
2017-04-25T04:07:25.233Z,99.90
2017-04-25T04:08:31.268Z,99.90
2017-04-25T04:09:37.583Z,99.90
2017-04-25T04:10:43.412Z,99.90
2017-04-25T04:11:49.166Z,99.90
2017-04-25T04:12:55.017Z,99.90
2017-04-25T04:14:00.806Z,99.90
2017-04-25T04:15:06.842Z,99.90
2017-04-25T04:16:12.658Z,99.90
2017-04-25T04:17:19.157Z,99.90
2017-04-25T04:18:24.977Z,99.90
2017-04-25T04:19:30.827Z,99.90
2017-04-25T04:20:36.757Z,99.90
2017-04-25T04:21:42.813Z,99.90
2017-04-25T04:22:48.678Z,99.90
2017-04-25T04:23:55.214Z,99.90
2017-04-25T04:25:01.661Z,99.90
2017-04-25T04:26:07.821Z,99.90
2017-04-25T04:27:13.796Z,99.90
2017-04-25T04:28:19.717Z,99.90
2017-04-25T04:29:26.353Z,99.90
2017-04-25T04:30:32.397Z,99.90
2017-04-25T04:31:38.421Z,99.90
2017-04-25T04:32:44.474Z,99.90
2017-04-25T04:33:50.429Z,99.90
2017-04-25T04:34:56.501Z,99.90
2017-04-25T04:36:03.104Z,99.90
2017-04-25T04:37:09.239Z,99.90
2017-04-25T04:38:15.287Z,99.90
2017-04-25T04:39:21.669Z,99.90
2017-04-25T04:40:27.804Z,99.90
2017-04-25T04:41:44.096Z,99.90
2017-04-25T04:43:57.102Z,99.90
2017-04-25T04:45:02.949Z,99.90
2017-04-25T04:46:08.930Z,99.90
2017-04-25T04:47:15.765Z,99.90
2017-04-25T04:48:21.775Z,99.90
2017-04-25T04:49:29.592Z,99.90
2017-04-25T04:50:38.533Z,99.90
2017-04-25T04:51:45.681Z,99.90
2017-04-25T04:52:52.585Z,99.90
2017-04-25T04:54:05.134Z,99.90
2017-04-25T04:55:17.009Z,99.90
2017-04-25T04:56:22.677Z,99.90
2017-04-25T04:57:29.202Z,99.90
2017-04-25T04:58:35.090Z,99.90
2017-04-25T04:59:41.294Z,99.90
2017-04-25T05:00:47.013Z,99.90
2017-04-25T05:01:53.738Z,99.90
2017-04-25T05:02:59.722Z,99.90
2017-04-25T05:04:05.853Z,99.90
2017-04-25T05:05:11.746Z,99.90
2017-04-25T05:06:17.711Z,99.90
2017-04-25T05:07:23.697Z,99.90
2017-04-25T05:08:29.990Z,99.90
2017-04-25T05:09:36.037Z,99.90
2017-04-25T05:10:41.920Z,99.90
2017-04-25T05:11:48.646Z,99.90
2017-04-25T05:12:54.694Z,99.90
2017-04-25T05:14:00.380Z,99.90
2017-04-25T05:15:06.340Z,99.90
2017-04-25T05:16:12.880Z,99.90
2017-04-25T05:17:18.937Z,99.90
2017-04-25T05:18:25.550Z,99.90
2017-04-25T05:19:31.485Z,99.90
2017-04-25T05:20:37.489Z,99.90
2017-04-25T05:21:43.567Z,99.90
2017-04-25T05:22:49.372Z,99.90
2017-04-25T05:23:55.357Z,99.90
2017-04-25T05:25:01.380Z,99.90
2017-04-25T05:26:07.226Z,99.90
2017-04-25T05:27:12.888Z,99.90
2017-04-25T05:28:18.856Z,99.90
2017-04-25T05:29:25.589Z,99.90
2017-04-25T05:30:32.109Z,99.90
2017-04-25T05:31:38.143Z,99.90
2017-04-25T05:32:43.908Z,99.90
2017-04-25T05:33:49.646Z,99.90
2017-04-25T05:34:55.785Z,99.90
2017-04-25T05:36:01.745Z,99.90
2017-04-25T05:37:07.842Z,99.90
2017-04-25T05:38:13.665Z,99.90
2017-04-25T05:39:19.578Z,99.90
2017-04-25T05:40:25.583Z,99.90
2017-04-25T05:41:31.310Z,99.90
2017-04-25T05:42:37.940Z,99.90
2017-04-25T05:43:43.675Z,99.90
2017-04-25T05:44:49.501Z,99.90
2017-04-25T05:45:56.169Z,99.90
2017-04-25T05:47:01.943Z,99.90
2017-04-25T05:48:07.667Z,99.90
2017-04-25T05:49:13.673Z,99.90
2017-04-25T05:50:20.094Z,99.90
2017-04-25T05:51:26.659Z,99.90
2017-04-25T05:52:32.405Z,99.90
2017-04-25T05:53:38.385Z,99.90
2017-04-25T05:54:44.129Z,99.90
2017-04-25T05:55:49.976Z,99.90
2017-04-25T05:56:56.916Z,99.90
2017-04-25T05:58:02.841Z,99.90
2017-04-25T05:59:08.901Z,99.90
2017-04-25T06:00:14.696Z,99.90
2017-04-25T06:01:20.579Z,99.90
2017-04-25T06:02:26.672Z,99.90
2017-04-25T06:03:32.866Z,99.90
2017-04-25T06:04:39.525Z,99.90
2017-04-25T06:05:45.492Z,99.90
2017-04-25T06:06:51.353Z,99.90
2017-04-25T06:07:57.118Z,99.90
2017-04-25T06:09:04.263Z,99.90
2017-04-25T06:10:10.073Z,99.90
2017-04-25T06:11:15.993Z,99.90
2017-04-25T06:12:22.196Z,99.90
2017-04-25T06:13:28.098Z,99.90
2017-04-25T06:14:33.964Z,99.90
2017-04-25T06:15:39.978Z,99.90
2017-04-25T06:16:46.524Z,99.90
2017-04-25T06:17:54.228Z,99.90
2017-04-25T06:19:00.244Z,99.90
2017-04-25T06:20:06.271Z,99.90
2017-04-25T06:21:12.368Z,99.90
2017-04-25T06:22:19.281Z,99.90
2017-04-25T06:23:28.701Z,99.90
2017-04-25T06:24:34.666Z,99.90
2017-04-25T06:25:41.488Z,99.90
2017-04-25T06:26:47.501Z,99.90
2017-04-25T06:27:53.310Z,99.90
2017-04-25T06:28:59.058Z,99.90
2017-04-25T06:30:05.886Z,99.90
2017-04-25T06:31:11.839Z,99.90
2017-04-25T06:32:18.021Z,99.90
2017-04-25T06:33:24.136Z,99.90
2017-04-25T06:34:30.168Z,99.90
2017-04-25T06:35:35.934Z,99.90
2017-04-25T06:36:42.029Z,99.90
2017-04-25T06:37:47.876Z,99.90
2017-04-25T06:38:53.864Z,99.90
2017-04-25T06:39:59.823Z,99.90
2017-04-25T06:41:05.922Z,99.90
2017-04-25T06:42:11.961Z,99.90
2017-04-25T06:43:18.531Z,99.90
2017-04-25T06:44:24.240Z,99.90
2017-04-25T06:45:30.251Z,99.90
2017-04-25T06:46:36.809Z,99.90
2017-04-25T06:47:43.520Z,99.90
2017-04-25T06:48:49.349Z,99.90
2017-04-25T06:49:55.864Z,99.90
2017-04-25T06:51:02.305Z,99.90
2017-04-25T06:52:08.972Z,99.90
2017-04-25T06:53:16.432Z,99.90
2017-04-25T06:54:22.360Z,99.90
2017-04-25T06:55:28.125Z,99.90
2017-04-25T06:56:34.113Z,99.90
2017-04-25T06:57:40.810Z,99.90
2017-04-25T06:58:46.626Z,99.90
2017-04-25T06:59:52.502Z,99.90
2017-04-25T07:00:58.232Z,99.90
2017-04-25T07:02:04.305Z,99.90
2017-04-25T07:03:10.417Z,99.90
2017-04-25T07:04:16.390Z,99.90
2017-04-25T07:05:22.897Z,99.90
2017-04-25T07:06:28.931Z,99.90
2017-04-25T07:07:34.897Z,99.90
2017-04-25T07:08:40.875Z,99.90
2017-04-25T07:09:46.611Z,99.90
2017-04-25T07:10:52.512Z,99.90
2017-04-25T07:11:58.233Z,99.90
2017-04-25T07:13:04.781Z,99.90
2017-04-25T07:14:11.393Z,99.90
2017-04-25T07:15:17.305Z,99.90
2017-04-25T07:16:23.140Z,99.90
2017-04-25T07:17:29.161Z,99.90
2017-04-25T07:18:34.969Z,99.90
2017-04-25T07:19:41.624Z,99.90
2017-04-25T07:20:47.705Z,99.90
2017-04-25T07:21:53.417Z,99.90
2017-04-25T07:22:59.509Z,99.90
2017-04-25T07:24:05.556Z,99.90
2017-04-25T07:25:11.573Z,99.90
2017-04-25T07:26:17.412Z,99.90
2017-04-25T07:27:23.297Z,99.90
2017-04-25T07:28:29.316Z,99.90
2017-04-25T07:29:35.357Z,99.90
2017-04-25T07:30:41.087Z,99.90
2017-04-25T07:31:47.067Z,99.90
2017-04-25T07:32:52.932Z,99.90
2017-04-25T07:33:58.961Z,99.90
2017-04-25T07:35:05.066Z,99.90
2017-04-25T07:36:10.973Z,99.90
2017-04-25T07:37:17.050Z,99.90
2017-04-25T07:38:22.893Z,99.90
2017-04-25T07:39:28.929Z,99.90
2017-04-25T07:40:34.876Z,99.90
2017-04-25T07:41:40.673Z,99.90
2017-04-25T07:42:46.681Z,99.90
2017-04-25T07:43:52.624Z,99.90
2017-04-25T07:44:59.254Z,99.90
2017-04-25T07:46:05.151Z,99.90
2017-04-25T07:47:11.126Z,99.90
2017-04-25T07:48:16.892Z,99.90
2017-04-25T07:49:22.618Z,99.90
2017-04-25T07:50:28.517Z,99.90
2017-04-25T07:51:35.197Z,99.90
2017-04-25T07:52:41.918Z,99.90
2017-04-25T07:53:47.755Z,99.90
2017-04-25T07:54:53.587Z,99.90
2017-04-25T07:55:59.722Z,99.90
2017-04-25T07:57:05.793Z,99.90
2017-04-25T07:58:11.628Z,99.90
2017-04-25T07:59:17.442Z,99.90
2017-04-25T08:00:24.044Z,99.90
2017-04-25T08:01:30.112Z,99.90
2017-04-25T08:02:36.083Z,99.90
2017-04-25T08:03:42.722Z,99.90
2017-04-25T08:04:48.429Z,99.90
2017-04-25T08:05:54.323Z,99.90
2017-04-25T08:07:00.152Z,99.90
2017-04-25T08:08:06.734Z,99.90
2017-04-25T08:09:13.162Z,99.90
2017-04-25T08:10:19.706Z,99.90
2017-04-25T08:11:25.679Z,99.90
2017-04-25T08:12:31.649Z,99.90
2017-04-25T08:13:37.417Z,99.90
2017-04-25T08:14:43.559Z,99.90
2017-04-25T08:15:49.540Z,99.90
2017-04-25T08:16:55.461Z,99.90
2017-04-25T08:18:01.388Z,99.90
2017-04-25T08:19:07.193Z,99.90
2017-04-25T08:20:12.927Z,99.90
2017-04-25T08:21:18.902Z,99.90
2017-04-25T08:22:24.878Z,99.90
2017-04-25T08:23:30.885Z,99.90
2017-04-25T08:24:36.703Z,99.90
2017-04-25T08:25:43.206Z,99.90
2017-04-25T08:26:49.104Z,99.90
2017-04-25T08:27:54.886Z,99.90
2017-04-25T08:29:00.924Z,99.90
2017-04-25T08:30:07.740Z,99.90
2017-04-25T08:31:14.427Z,99.90
2017-04-25T08:32:20.337Z,99.90
2017-04-25T08:33:26.390Z,99.90
2017-04-25T08:34:32.185Z,99.90
2017-04-25T08:35:38.029Z,99.90
2017-04-25T08:36:43.877Z,99.90
2017-04-25T08:37:49.871Z,99.90
2017-04-25T08:38:56.474Z,99.90
2017-04-25T08:40:02.485Z,99.90
2017-04-25T08:41:08.537Z,99.90
2017-04-25T08:42:15.122Z,99.90
2017-04-25T08:43:20.906Z,99.90
2017-04-25T08:44:27.413Z,99.90
2017-04-25T08:45:34.233Z,99.90
2017-04-25T08:46:40.205Z,99.90
2017-04-25T08:47:46.031Z,99.90
2017-04-25T08:48:52.016Z,99.90
2017-04-25T08:49:57.741Z,99.90
2017-04-25T08:51:03.781Z,99.90
2017-04-25T08:52:09.650Z,99.90
2017-04-25T08:53:15.702Z,99.90
2017-04-25T08:54:22.286Z,99.90
2017-04-25T08:55:28.038Z,99.90
2017-04-25T08:56:34.845Z,99.90
2017-04-25T08:57:40.741Z,99.90
2017-04-25T08:58:46.661Z,99.90
2017-04-25T08:59:52.437Z,99.90
2017-04-25T09:00:59.125Z,99.90
2017-04-25T09:02:05.070Z,99.90
2017-04-25T09:03:11.200Z,99.90
2017-04-25T09:04:16.976Z,99.90
2017-04-25T09:05:22.915Z,99.90
2017-04-25T09:06:28.952Z,99.90
2017-04-25T09:07:34.798Z,99.90
2017-04-25T09:08:40.577Z,99.90
2017-04-25T09:09:46.501Z,99.90
2017-04-25T09:10:52.369Z,99.90
2017-04-25T09:11:58.221Z,99.90
2017-04-25T09:13:04.770Z,99.90
2017-04-25T09:14:10.761Z,99.90
2017-04-25T09:15:16.564Z,99.90
2017-04-25T09:16:22.500Z,99.90
2017-04-25T09:17:28.297Z,99.90
2017-04-25T09:18:34.850Z,99.90
2017-04-25T09:19:40.584Z,99.90
2017-04-25T09:20:46.541Z,99.90
2017-04-25T09:21:52.336Z,99.90
2017-04-25T09:22:58.830Z,99.90
2017-04-25T09:24:04.646Z,99.90
2017-04-25T09:25:10.562Z,99.90
2017-04-25T09:26:16.531Z,99.90
2017-04-25T09:27:22.362Z,99.90
2017-04-25T09:28:28.201Z,99.90
2017-04-25T09:29:34.238Z,99.90
2017-04-25T09:30:40.725Z,99.90
2017-04-25T09:31:46.650Z,99.90
2017-04-25T09:32:52.766Z,99.90
2017-04-25T09:33:58.797Z,99.90
2017-04-25T09:35:04.728Z,99.90
2017-04-25T09:36:10.657Z,99.90
2017-04-25T09:37:16.621Z,99.90
2017-04-25T09:38:22.900Z,99.90
2017-04-25T09:39:29.600Z,99.90
2017-04-25T09:40:36.205Z,99.90
2017-04-25T09:41:42.019Z,99.90
2017-04-25T09:42:47.997Z,99.90
2017-04-25T09:43:54.061Z,99.90
2017-04-25T09:45:00.212Z,99.90
2017-04-25T09:46:06.152Z,99.90
2017-04-25T09:47:12.154Z,99.90
2017-04-25T09:48:17.939Z,99.90
2017-04-25T09:49:24.314Z,99.90
2017-04-25T09:50:30.282Z,99.90
2017-04-25T09:51:36.088Z,99.90
2017-04-25T09:52:41.889Z,99.90
2017-04-25T09:53:47.758Z,99.90
2017-04-25T09:54:54.556Z,99.90
2017-04-25T09:56:00.381Z,99.90
2017-04-25T09:57:06.909Z,99.90
2017-04-25T09:58:13.537Z,99.90
2017-04-25T09:59:19.494Z,99.90
2017-04-25T10:00:26.374Z,99.90
2017-04-25T10:01:32.878Z,99.90
2017-04-25T10:02:38.887Z,99.90
2017-04-25T10:03:44.894Z,99.90
2017-04-25T10:04:50.698Z,99.90
2017-04-25T10:05:56.645Z,99.90
2017-04-25T10:07:03.082Z,99.90
2017-04-25T10:08:09.155Z,99.90
2017-04-25T10:09:15.047Z,99.90
2017-04-25T10:10:21.067Z,99.90
2017-04-25T10:11:27.185Z,99.90
2017-04-25T10:12:33.521Z,99.90
2017-04-25T10:13:39.397Z,99.90
2017-04-25T10:14:45.951Z,99.90
2017-04-25T10:15:51.977Z,99.90
2017-04-25T10:16:58.042Z,99.90
2017-04-25T10:18:03.958Z,99.90
2017-04-25T10:19:09.850Z,99.90
2017-04-25T10:20:15.738Z,99.90
2017-04-25T10:21:21.792Z,99.90
2017-04-25T10:22:27.728Z,99.90
2017-04-25T10:23:33.906Z,99.90
2017-04-25T10:24:39.800Z,99.90
2017-04-25T10:25:45.669Z,99.90
2017-04-25T10:26:51.827Z,99.90
2017-04-25T10:27:57.725Z,99.90
2017-04-25T10:29:03.657Z,99.90
2017-04-25T10:30:09.465Z,99.90
2017-04-25T10:31:15.510Z,99.90
2017-04-25T10:32:21.418Z,99.90
2017-04-25T10:33:27.358Z,99.90
2017-04-25T10:34:33.968Z,99.90
2017-04-25T10:35:40.737Z,99.90
2017-04-25T10:36:46.634Z,99.90
2017-04-25T10:37:53.488Z,99.90
2017-04-25T10:38:59.521Z,99.90
2017-04-25T10:40:05.322Z,99.90
2017-04-25T10:41:11.165Z,99.90
2017-04-25T10:42:17.205Z,99.90
2017-04-25T10:43:24.309Z,99.90
2017-04-25T10:44:30.165Z,99.90
2017-04-25T10:45:36.733Z,99.90
2017-04-25T10:46:42.847Z,99.90
2017-04-25T10:47:49.441Z,99.90
2017-04-25T10:48:55.333Z,99.90
2017-04-25T10:50:01.221Z,99.90
2017-04-25T10:51:07.008Z,99.90
2017-04-25T10:52:13.001Z,99.90
2017-04-25T10:53:19.040Z,99.90
2017-04-25T10:54:25.664Z,99.90
2017-04-25T10:55:32.614Z,99.90
2017-04-25T10:56:38.533Z,99.90
2017-04-25T10:57:44.282Z,99.90
2017-04-25T10:58:50.347Z,99.90
2017-04-25T10:59:56.247Z,99.90
2017-04-25T11:01:02.041Z,99.90
2017-04-25T11:02:08.510Z,99.90
2017-04-25T11:03:15.137Z,99.90
2017-04-25T11:04:21.209Z,99.90
2017-04-25T11:05:27.685Z,99.90
2017-04-25T11:06:33.614Z,99.90
2017-04-25T11:07:39.465Z,99.90
2017-04-25T11:08:45.177Z,99.90
2017-04-25T11:09:51.119Z,99.90
2017-04-25T11:10:57.136Z,99.90
2017-04-25T11:12:03.129Z,99.90
2017-04-25T11:13:09.118Z,99.90
2017-04-25T11:14:15.025Z,99.90
2017-04-25T11:15:20.924Z,99.90
2017-04-25T11:16:26.838Z,99.90
2017-04-25T11:17:32.817Z,99.90
2017-04-25T11:18:39.477Z,99.90
2017-04-25T11:19:45.457Z,99.90
2017-04-25T11:20:51.180Z,99.90
2017-04-25T11:21:57.042Z,99.90
2017-04-25T11:23:02.943Z,99.90
2017-04-25T11:24:08.917Z,99.90
2017-04-25T11:25:15.548Z,99.90
2017-04-25T11:26:21.525Z,99.90
2017-04-25T11:27:28.100Z,99.90
2017-04-25T11:28:34.349Z,99.90
2017-04-25T11:29:40.206Z,99.90
2017-04-25T11:31:52.169Z,99.90
2017-04-25T11:32:58.228Z,99.90
2017-04-25T11:34:04.409Z,99.90
2017-04-25T11:35:10.344Z,99.90
2017-04-25T11:36:16.505Z,99.90
2017-04-25T11:37:22.514Z,99.90
2017-04-25T11:38:28.621Z,99.90
2017-04-25T11:39:34.542Z,99.90
2017-04-25T11:40:40.594Z,99.90
2017-04-25T11:41:46.375Z,99.90
2017-04-25T11:42:52.163Z,99.90
2017-04-25T11:43:58.109Z,99.90
2017-04-25T11:45:04.204Z,99.90
2017-04-25T11:46:09.977Z,99.90
2017-04-25T11:47:15.733Z,99.90
2017-04-25T11:48:21.752Z,99.90
2017-04-25T11:49:28.420Z,99.90
2017-04-25T11:50:35.031Z,99.90
2017-04-25T11:51:41.538Z,99.90
2017-04-25T11:52:47.499Z,99.90
2017-04-25T11:53:54.108Z,99.90
2017-04-25T11:55:00.201Z,99.90
2017-04-25T11:56:06.184Z,99.90
2017-04-25T11:57:12.204Z,99.90
2017-04-25T11:58:18.846Z,99.90
2017-04-25T11:59:24.655Z,99.90
2017-04-25T12:00:30.565Z,99.90
2017-04-25T12:01:36.390Z,99.90
2017-04-25T12:02:42.293Z,99.90
2017-04-25T12:03:48.185Z,99.90
2017-04-25T12:04:54.856Z,99.90
2017-04-25T12:06:01.017Z,99.90
2017-04-25T12:07:07.126Z,99.90
2017-04-25T12:08:13.078Z,99.90
2017-04-25T12:09:19.776Z,99.90
2017-04-25T12:10:25.469Z,99.90
2017-04-25T12:11:31.494Z,99.90
2017-04-25T12:12:37.419Z,99.90
2017-04-25T12:13:43.470Z,99.90
2017-04-25T12:14:49.366Z,99.90
2017-04-25T12:15:55.853Z,99.90
2017-04-25T12:17:01.982Z,99.90
2017-04-25T12:18:08.073Z,99.90
2017-04-25T12:19:14.009Z,99.90
2017-04-25T12:20:20.002Z,99.90
2017-04-25T12:21:26.137Z,99.90
2017-04-25T12:22:32.043Z,99.90
2017-04-25T12:23:38.310Z,99.90
2017-04-25T12:24:44.093Z,99.90
2017-04-25T12:25:49.853Z,99.90
2017-04-25T12:26:56.388Z,99.90
2017-04-25T12:28:02.344Z,99.90
2017-04-25T12:29:08.252Z,99.90
2017-04-25T12:30:14.861Z,99.90
2017-04-25T12:31:20.879Z,99.90
2017-04-25T12:32:26.907Z,99.90
2017-04-25T12:33:33.723Z,99.90
2017-04-25T12:34:39.496Z,99.90
2017-04-25T12:35:46.435Z,99.90
2017-04-25T12:36:52.436Z,99.90
2017-04-25T12:37:59.055Z,99.90
2017-04-25T12:39:05.577Z,99.90
2017-04-25T12:41:21.709Z,99.90
2017-04-25T12:42:27.812Z,99.90
2017-04-25T12:44:45.448Z,99.90
2017-04-25T12:45:51.457Z,99.90
2017-04-25T12:48:07.982Z,99.90
2017-04-25T12:49:14.085Z,99.90
2017-04-25T12:50:20.118Z,99.90
2017-04-25T12:51:25.880Z,99.90
2017-04-25T12:52:31.737Z,99.90
2017-04-25T12:54:48.124Z,99.90
2017-04-25T12:55:54.961Z,99.90
2017-04-25T12:57:00.981Z,99.90
2017-04-25T12:58:06.968Z,99.90
2017-04-25T12:59:12.965Z,99.90
2017-04-25T13:00:18.961Z,99.90
2017-04-25T13:01:24.817Z,99.90
2017-04-25T13:02:30.637Z,99.90
2017-04-25T13:03:36.749Z,99.90
2017-04-25T13:04:42.773Z,99.90
2017-04-25T13:05:48.805Z,99.90
2017-04-25T13:06:55.754Z,99.90
2017-04-25T13:08:02.045Z,99.90
2017-04-25T13:09:07.921Z,99.90
2017-04-25T13:10:14.542Z,99.90
2017-04-25T13:11:20.628Z,99.90
2017-04-25T13:12:27.256Z,99.90
2017-04-25T13:13:33.355Z,99.90
2017-04-25T13:14:40.008Z,99.90
2017-04-25T13:16:56.748Z,99.90
2017-04-25T13:19:18.631Z,99.90
2017-04-25T13:20:28.643Z,99.90
2017-04-25T13:21:40.218Z,99.90
2017-04-25T13:22:48.378Z,99.90
2017-04-25T13:23:54.536Z,99.90
2017-04-25T13:25:01.788Z,99.90
2017-04-25T13:26:07.817Z,99.90
2017-04-25T13:27:14.197Z,99.90
2017-04-25T13:28:20.265Z,99.90
2017-04-25T13:29:26.770Z,99.90
2017-04-25T13:30:32.762Z,99.90
2017-04-25T13:31:38.797Z,99.90
2017-04-25T13:32:46.041Z,99.90
2017-04-25T13:35:07.477Z,99.90
2017-04-25T13:36:15.165Z,99.90
2017-04-25T13:37:28.094Z,99.90
2017-04-25T13:38:36.213Z,99.90
2017-04-25T13:39:47.510Z,99.90
2017-04-25T13:40:57.047Z,99.90
2017-04-25T13:42:08.256Z,99.90
2017-04-25T13:44:38.007Z,99.90
2017-04-25T13:45:47.526Z,99.90
2017-04-25T13:46:55.756Z,99.90
2017-04-25T13:48:03.926Z,99.90
2017-04-25T13:49:12.122Z,99.90
2017-04-25T13:50:19.151Z,99.90
2017-04-25T13:51:25.050Z,99.70
2017-04-25T13:52:31.672Z,99.70
2017-04-25T13:53:37.628Z,99.90
2017-04-25T13:54:43.730Z,99.80
2017-04-25T13:57:03.329Z,99.90
2017-04-25T13:58:09.395Z,98.90
2017-04-25T13:59:24.296Z,98.20
2017-04-25T14:01:40.340Z,95.70
2017-04-25T14:02:50.990Z,96.70
2017-04-25T14:03:57.145Z,96.70
2017-04-25T14:05:03.121Z,96.10
2017-04-25T14:07:28.389Z,97.20
2017-04-25T14:08:34.987Z,98.80
2017-04-25T14:10:58.498Z,99.90
2017-04-25T14:12:04.364Z,99.90
2017-04-25T14:13:10.203Z,99.90
2017-04-25T14:14:15.966Z,99.90
2017-04-25T14:15:21.965Z,99.50
2017-04-25T14:16:27.956Z,98.90
2017-04-25T14:17:37.543Z,99.90
2017-04-25T14:18:44.196Z,98.50
2017-04-25T14:19:50.408Z,98.50
2017-04-25T14:21:01.056Z,97.10
2017-04-25T14:22:07.861Z,95.20
2017-04-25T14:23:13.820Z,98.10
2017-04-25T14:24:19.618Z,94.80
2017-04-25T14:25:25.452Z,96.00
2017-04-25T14:26:32.712Z,98.50
2017-04-25T14:27:39.653Z,96.90
2017-04-25T14:28:46.954Z,98.80
2017-04-25T14:29:57.317Z,99.20
2017-04-25T14:31:04.033Z,96.90